Time;durP1;ratioP1;P1;durP2;ratioP2;P2;SDS_P1;SDS_P2;PMS_P1;PMS_P2;Temp;Humidity;BMP_temperature;BMP_pressure;BME280_temperature;BME280_humidity;BME280_pressure;Samples;Min_cycle;Max_cycle;Signal;HPM_P1;HPM_P2
2021/03/30 00:01:28;;;;;;;10.48;6.88;;;13.10;97.70;;;;;;4169364;28;20464;-68
2021/03/30 00:03:29;;;;;;;8.93;5.78;;;13.00;99.00;;;;;;4160200;28;20037;-67
2021/03/30 00:05:30;;;;;;;9.27;5.75;;;12.90;98.90;;;;;;4169388;28;20036;-68
2021/03/30 00:07:30;;;;;;;9.80;6.47;;;12.80;98.70;;;;;;4171168;28;20128;-68
2021/03/30 00:09:31;;;;;;;11.18;6.85;;;12.80;99.40;;;;;;4170262;28;20649;-68
2021/03/30 00:11:31;;;;;;;8.25;6.45;;;12.70;98.50;;;;;;4168963;28;20048;-68
2021/03/30 00:13:32;;;;;;;10.63;6.70;;;12.70;99.80;;;;;;4168660;28;20036;-68
2021/03/30 00:15:33;;;;;;;11.75;6.78;;;12.70;99.10;;;;;;4170351;28;20041;-68
2021/03/30 00:17:34;;;;;;;11.02;7.20;;;12.70;99.20;;;;;;4171945;28;20106;-67
2021/03/30 00:19:35;;;;;;;13.20;7.78;;;12.70;99.90;;;;;;4171212;28;20061;-68
2021/03/30 00:21:36;;;;;;;11.55;7.20;;;12.60;99.90;;;;;;4171729;28;20124;-68
2021/03/30 00:23:37;;;;;;;13.43;6.90;;;12.60;99.90;;;;;;4158533;28;20025;-68
2021/03/30 00:25:38;;;;;;;13.23;7.93;;;12.50;99.90;;;;;;4169819;28;20033;-68
2021/03/30 00:27:39;;;;;;;13.32;7.35;;;12.60;99.90;;;;;;4170100;28;20033;-68
2021/03/30 00:29:43;;;;;;;10.35;7.25;;;12.50;99.90;;;;;;4167711;28;20041;-68
2021/03/30 00:31:43;;;;;;;13.18;7.82;;;12.60;99.90;;;;;;4171439;28;20033;-68
2021/03/30 00:33:44;;;;;;;12.52;7.05;;;12.60;99.90;;;;;;4166896;28;20640;-68
2021/03/30 00:35:44;;;;;;;11.07;6.72;;;12.60;99.90;;;;;;4165546;28;20065;-68
2021/03/30 00:37:45;;;;;;;12.48;7.28;;;12.60;99.90;;;;;;4172312;28;20051;-68
2021/03/30 00:39:46;;;;;;;9.75;6.38;;;12.50;99.60;;;;;;4167432;28;20095;-68
2021/03/30 00:41:46;;;;;;;10.50;6.75;;;12.50;99.90;;;;;;4167949;28;20481;-67
2021/03/30 00:43:47;;;;;;;10.30;6.60;;;12.50;99.90;;;;;;4170237;28;20033;-67
2021/03/30 00:45:48;;;;;;;12.13;6.20;;;12.50;99.90;;;;;;4167576;28;20030;-68
2021/03/30 00:47:49;;;;;;;8.73;5.82;;;12.40;99.90;;;;;;4173932;28;20048;-68
2021/03/30 00:49:50;;;;;;;11.37;6.57;;;12.30;99.90;;;;;;4167854;28;20113;-68
2021/03/30 00:51:52;;;;;;;10.90;6.30;;;12.30;99.90;;;;;;4171695;28;20029;-68
2021/03/30 00:53:52;;;;;;;10.10;6.88;;;12.30;99.90;;;;;;4169081;28;20059;-68
2021/03/30 00:55:54;;;;;;;10.03;6.63;;;12.30;99.90;;;;;;4171409;28;20514;-68
2021/03/30 00:57:55;;;;;;;11.60;7.03;;;12.30;99.90;;;;;;4151762;28;20172;-67
2021/03/30 00:59:56;;;;;;;12.68;7.07;;;12.30;99.90;;;;;;4183144;28;20079;-68
2021/03/30 01:01:58;;;;;;;13.10;7.47;;;12.20;99.90;;;;;;4169774;28;20094;-68
2021/03/30 01:03:59;;;;;;;12.25;6.85;;;12.20;99.90;;;;;;4168184;28;20041;-68
2021/03/30 01:05:59;;;;;;;10.25;6.97;;;12.20;99.90;;;;;;4169248;28;20040;-68
2021/03/30 01:08:11;;;;;;;9.00;5.78;;;12.10;99.90;;;;;;4170545;28;20036;-67
2021/03/30 01:10:41;;;;;;;9.88;6.47;;;12.10;99.90;;;;;;4166895;28;20642;-68
2021/03/30 01:12:49;;;;;;;8.73;5.90;;;12.10;99.90;;;;;;4172379;28;20033;-68
2021/03/30 01:15:04;;;;;;;10.85;6.10;;;12.10;99.90;;;;;;4179969;28;20037;-67
2021/03/30 01:17:11;;;;;;;9.75;6.07;;;12.00;99.90;;;;;;4171963;28;20041;-68
2021/03/30 01:19:34;;;;;;;9.32;6.00;;;11.80;99.90;;;;;;4174482;28;20076;-67
2021/03/30 01:22:11;;;;;;;10.47;6.43;;;11.90;99.90;;;;;;4169048;28;20026;-67
2021/03/30 01:24:18;;;;;;;9.02;6.00;;;11.80;99.90;;;;;;4170202;28;20248;-68
2021/03/30 01:26:21;;;;;;;10.93;6.45;;;11.90;99.90;;;;;;4176190;28;20056;-67
2021/03/30 01:28:31;;;;;;;10.85;6.35;;;11.80;99.90;;;;;;4178452;28;20037;-68
2021/03/30 01:30:34;;;;;;;11.68;7.03;;;11.80;99.90;;;;;;4185998;28;20025;-68
2021/03/30 01:32:50;;;;;;;12.50;7.07;;;11.80;99.90;;;;;;4182899;28;20033;-68
2021/03/30 01:34:53;;;;;;;11.68;7.07;;;11.80;99.90;;;;;;4180397;28;20047;-68
2021/03/30 01:36:56;;;;;;;12.18;6.90;;;11.80;99.90;;;;;;4191607;28;20102;-67
2021/03/30 01:38:57;;;;;;;14.02;7.75;;;11.80;99.90;;;;;;4187033;28;20025;-68
2021/03/30 01:41:00;;;;;;;13.23;7.75;;;11.80;99.90;;;;;;4176336;28;20600;-68
2021/03/30 01:43:02;;;;;;;11.27;7.20;;;11.70;99.90;;;;;;4176667;28;20037;-68
2021/03/30 01:45:04;;;;;;;12.07;7.10;;;11.70;99.90;;;;;;4172160;28;20133;-68
2021/03/30 01:47:05;;;;;;;10.90;6.70;;;11.70;99.90;;;;;;4175046;28;20723;-68
2021/03/30 01:49:07;;;;;;;9.45;6.30;;;11.70;99.90;;;;;;4177226;28;20091;-67
2021/03/30 01:51:10;;;;;;;11.20;6.77;;;11.60;99.90;;;;;;4176317;28;20045;-68
2021/03/30 01:53:12;;;;;;;9.98;6.43;;;11.60;99.90;;;;;;4177308;28;20645;-68
2021/03/30 01:55:15;;;;;;;11.27;6.78;;;11.70;99.90;;;;;;4183913;28;20511;-67
2021/03/30 01:57:28;;;;;;;14.80;7.32;;;11.60;99.90;;;;;;4194140;28;20499;-67
2021/03/30 01:59:29;;;;;;;;;;;11.60;99.90;;;;;;4180005;28;20103;-67
2021/03/30 02:01:32;;;;;;;10.50;6.70;;;11.60;99.90;;;;;;4190654;28;19952;-68
2021/03/30 02:03:33;;;;;;;10.27;6.70;;;11.50;99.90;;;;;;4177713;28;20044;-67
2021/03/30 02:05:35;;;;;;;11.32;6.47;;;11.50;99.90;;;;;;4175834;28;20086;-68
2021/03/30 02:07:37;;;;;;;11.38;6.90;;;11.50;99.90;;;;;;4176223;28;20092;-67
2021/03/30 02:09:42;;;;;;;10.25;7.25;;;11.40;99.90;;;;;;4180863;28;20066;-68
2021/03/30 02:13:55;;;;;;;11.15;7.05;;;11.40;99.90;;;;;;4194128;28;20043;-68
2021/03/30 02:16:10;;;;;;;10.90;7.60;;;11.40;99.90;;;;;;4177931;28;20033;-68
2021/03/30 02:18:16;;;;;;;10.50;6.80;;;11.40;99.90;;;;;;4177798;28;20036;-67
2021/03/30 02:20:22;;;;;;;10.88;7.45;;;11.40;99.90;;;;;;4168700;28;20464;-68
2021/03/30 02:22:50;;;;;;;9.45;5.95;;;11.30;99.90;;;;;;4189549;28;20059;-68
2021/03/30 02:24:52;;;;;;;9.70;6.10;;;11.30;99.90;;;;;;4166590;28;20078;-68
2021/03/30 02:26:56;;;;;;;9.38;6.38;;;11.20;99.90;;;;;;4189444;28;20031;-68
2021/03/30 02:28:58;;;;;;;11.10;6.70;;;11.10;99.90;;;;;;4188159;28;20040;-68
2021/03/30 02:31:01;;;;;;;10.07;6.68;;;11.00;99.90;;;;;;4177444;28;20060;-68
2021/03/30 02:33:03;;;;;;;11.48;7.53;;;11.00;99.90;;;;;;4177086;28;20049;-68
2021/03/30 02:35:05;;;;;;;;;;;11.00;99.90;;;;;;4172973;28;20033;-68
2021/03/30 02:37:06;;;;;;;13.30;6.88;;;11.00;99.90;;;;;;4177527;28;19909;-68
2021/03/30 02:39:10;;;;;;;13.48;7.43;;;11.00;99.90;;;;;;4177441;28;20060;-68
2021/03/30 02:41:11;;;;;;;10.48;6.43;;;11.00;99.90;;;;;;4176407;28;20116;-68
2021/03/30 02:43:17;;;;;;;15.90;7.55;;;11.00;99.90;;;;;;4176828;28;20036;-68
2021/03/30 02:45:22;;;;;;;10.20;6.82;;;11.00;99.90;;;;;;4176424;28;20065;-68
2021/03/30 02:47:24;;;;;;;9.90;6.18;;;11.00;99.90;;;;;;4176906;28;20120;-68
2021/03/30 02:49:25;;;;;;;12.02;6.95;;;10.90;99.90;;;;;;4177022;28;20025;-68
2021/03/30 02:51:28;;;;;;;9.80;6.30;;;10.90;99.90;;;;;;4176848;28;20500;-68
2021/03/30 02:53:29;;;;;;;10.52;6.85;;;10.90;99.90;;;;;;4176904;28;20104;-68
2021/03/30 02:55:35;;;;;;;12.25;6.28;;;10.90;99.90;;;;;;4178548;28;20128;-68
2021/03/30 02:57:42;;;;;;;11.02;6.88;;;10.80;99.90;;;;;;4193730;28;20093;-68
2021/03/30 02:59:44;;;;;;;8.60;6.03;;;10.80;99.90;;;;;;4181160;28;20075;-67
2021/03/30 03:01:48;;;;;;;11.25;7.28;;;10.80;99.90;;;;;;4183610;28;20068;-68
2021/03/30 03:03:51;;;;;;;11.30;6.38;;;10.80;99.90;;;;;;4189099;28;20040;-68
2021/03/30 03:05:52;;;;;;;9.75;6.82;;;10.80;99.90;;;;;;4174882;28;20033;-68
2021/03/30 03:07:53;;;;;;;13.15;7.00;;;10.80;99.90;;;;;;4175549;28;20079;-68
2021/03/30 03:09:55;;;;;;;10.82;6.78;;;10.70;99.90;;;;;;4176576;28;20028;-68
2021/03/30 03:11:56;;;;;;;14.47;6.60;;;10.70;99.90;;;;;;4174100;28;20029;-68
2021/03/30 03:13:58;;;;;;;9.82;6.20;;;10.70;99.90;;;;;;4175218;28;20029;-68
2021/03/30 03:15:59;;;;;;;9.57;6.45;;;10.70;99.90;;;;;;4182414;28;20480;-68
2021/03/30 03:18:00;;;;;;;12.32;6.95;;;10.70;99.90;;;;;;4182987;28;20032;-68
2021/03/30 03:20:04;;;;;;;11.38;6.25;;;10.60;99.90;;;;;;4176749;28;20037;-68
2021/03/30 03:22:05;;;;;;;9.15;6.30;;;10.60;99.90;;;;;;4176426;28;20131;-68
2021/03/30 03:24:10;;;;;;;8.63;5.85;;;10.50;99.90;;;;;;4176425;28;20469;-68
2021/03/30 03:26:14;;;;;;;13.80;7.20;;;10.50;99.90;;;;;;4175096;28;20443;-68
2021/03/30 03:28:15;;;;;;;9.95;5.40;;;10.50;99.90;;;;;;4176359;28;20033;-68
2021/03/30 03:30:18;;;;;;;10.75;6.15;;;10.50;99.90;;;;;;4174428;28;20141;-68
2021/03/30 03:32:24;;;;;;;9.77;5.85;;;10.50;99.90;;;;;;4173547;28;20040;-68
2021/03/30 03:34:25;;;;;;;11.23;6.63;;;10.50;99.90;;;;;;4174606;28;20358;-68
2021/03/30 03:36:37;;;;;;;11.38;5.60;;;10.50;99.90;;;;;;4175841;28;20043;-68
2021/03/30 03:38:43;;;;;;;12.68;6.25;;;10.50;99.90;;;;;;4193163;28;20032;-68
2021/03/30 03:40:43;;;;;;;9.93;5.63;;;10.50;99.90;;;;;;4177011;28;20393;-68
2021/03/30 03:42:44;;;;;;;10.52;6.15;;;10.50;99.90;;;;;;4181249;28;20049;-68
2021/03/30 03:44:45;;;;;;;12.95;6.15;;;10.40;99.90;;;;;;4172646;28;20033;-68
2021/03/30 03:46:49;;;;;;;9.32;5.85;;;10.30;99.90;;;;;;4188180;28;20082;-68
2021/03/30 03:48:50;;;;;;;9.15;5.95;;;10.20;99.90;;;;;;4172578;28;20037;-67
2021/03/30 03:50:52;;;;;;;9.43;6.13;;;10.20;99.90;;;;;;4171461;28;20116;-68
2021/03/30 03:52:54;;;;;;;9.33;5.70;;;10.10;99.90;;;;;;4175207;28;20519;-68
2021/03/30 03:54:58;;;;;;;8.30;5.93;;;10.10;99.90;;;;;;4175823;28;20255;-68
2021/03/30 03:57:04;;;;;;;10.15;5.88;;;10.10;99.90;;;;;;4175525;28;20041;-68
2021/03/30 03:59:15;;;;;;;9.27;6.22;;;10.10;99.90;;;;;;4175995;28;20048;-68
2021/03/30 04:01:20;;;;;;;13.40;6.10;;;10.10;99.90;;;;;;4169260;28;20489;-68
2021/03/30 04:03:29;;;;;;;10.57;6.07;;;10.10;99.90;;;;;;4176455;28;20029;-67
2021/03/30 04:05:58;;;;;;;8.75;5.28;;;10.10;99.90;;;;;;4176300;28;20052;-68
2021/03/30 04:08:04;;;;;;;11.57;6.00;;;10.10;99.90;;;;;;4191527;28;20482;-67
2021/03/30 04:10:08;;;;;;;12.23;5.95;;;10.10;99.90;;;;;;4192505;28;20028;-68
2021/03/30 04:12:10;;;;;;;7.90;4.65;;;10.10;99.90;;;;;;4183518;28;20033;-67
2021/03/30 04:14:11;;;;;;;10.90;5.95;;;10.00;99.90;;;;;;4192526;28;20027;-68
2021/03/30 04:16:13;;;;;;;12.27;5.80;;;10.00;99.90;;;;;;4192644;28;20021;-68
2021/03/30 04:18:13;;;;;;;12.73;5.53;;;10.00;99.90;;;;;;4190726;28;20044;-68
2021/03/30 04:20:15;;;;;;;8.25;5.28;;;9.90;99.90;;;;;;4190896;28;20068;-67
2021/03/30 04:22:16;;;;;;;10.43;5.45;;;9.90;99.90;;;;;;4192732;28;20029;-68
2021/03/30 04:24:17;;;;;;;7.95;4.97;;;9.90;99.90;;;;;;4184101;28;20624;-68
2021/03/30 04:26:19;;;;;;;10.25;5.10;;;9.90;99.90;;;;;;4193261;28;20063;-67
2021/03/30 04:28:19;;;;;;;10.07;5.43;;;9.90;99.90;;;;;;4191985;28;20032;-67
2021/03/30 04:30:22;;;;;;;8.30;4.63;;;9.90;99.90;;;;;;4190672;28;20028;-68
2021/03/30 04:32:22;;;;;;;8.77;5.20;;;9.80;99.90;;;;;;4192286;28;20028;-68
2021/03/30 04:34:24;;;;;;;12.35;5.53;;;9.70;99.90;;;;;;4192633;28;20478;-68
2021/03/30 04:36:24;;;;;;;7.80;5.15;;;9.70;99.90;;;;;;4192657;28;20029;-68
2021/03/30 04:38:25;;;;;;;8.60;4.93;;;9.70;99.90;;;;;;4192058;28;20077;-67
2021/03/30 04:40:26;;;;;;;10.60;5.85;;;9.70;99.90;;;;;;4191115;28;20065;-67
2021/03/30 04:42:26;;;;;;;8.07;4.93;;;9.70;99.90;;;;;;4189886;28;20044;-68
2021/03/30 04:44:27;;;;;;;9.43;5.72;;;9.70;99.90;;;;;;4191888;28;20079;-68
2021/03/30 04:46:27;;;;;;;9.63;5.55;;;9.70;99.90;;;;;;4189532;28;20041;-68
2021/03/30 04:48:29;;;;;;;8.32;5.03;;;9.70;99.90;;;;;;4188505;28;20025;-68
2021/03/30 04:50:29;;;;;;;10.02;5.13;;;9.80;99.90;;;;;;4189765;28;20055;-68
2021/03/30 04:52:30;;;;;;;7.18;4.80;;;9.70;99.90;;;;;;4188212;28;20041;-68
2021/03/30 04:54:31;;;;;;;9.82;5.50;;;9.70;99.90;;;;;;4185919;28;20539;-68
2021/03/30 04:56:33;;;;;;;8.85;5.35;;;9.80;99.90;;;;;;4185601;28;20048;-68
2021/03/30 04:58:34;;;;;;;;;;;9.70;99.90;;;;;;4188082;28;20044;-67
2021/03/30 05:00:35;;;;;;;8.32;5.13;;;9.70;99.90;;;;;;4188560;28;20356;-68
2021/03/30 05:02:35;;;;;;;8.23;4.60;;;9.70;99.90;;;;;;4187175;28;20153;-68
2021/03/30 05:04:36;;;;;;;9.70;5.20;;;9.70;99.90;;;;;;4185420;28;20047;-68
2021/03/30 05:06:36;;;;;;;12.38;4.93;;;9.70;99.90;;;;;;4186559;28;20069;-68
2021/03/30 05:08:37;;;;;;;9.57;5.43;;;9.70;99.90;;;;;;4186155;28;20028;-68
2021/03/30 05:10:38;;;;;;;10.50;4.82;;;9.70;99.90;;;;;;4189970;28;20040;-68
2021/03/30 05:12:39;;;;;;;9.77;5.28;;;9.70;99.90;;;;;;4187212;28;20052;-68
2021/03/30 05:14:39;;;;;;;10.82;5.45;;;9.60;99.90;;;;;;4188455;28;20040;-68
2021/03/30 05:16:40;;;;;;;8.75;5.18;;;9.70;99.90;;;;;;4176836;28;20493;-68
2021/03/30 05:18:41;;;;;;;8.00;5.03;;;9.60;99.90;;;;;;4194633;28;20090;-68
2021/03/30 05:20:42;;;;;;;10.25;5.03;;;9.60;99.90;;;;;;4190535;28;20037;-68
2021/03/30 05:22:43;;;;;;;10.00;5.03;;;9.60;99.90;;;;;;4177066;28;20720;-68
2021/03/30 05:24:46;;;;;;;8.90;4.85;;;9.50;99.90;;;;;;4190355;28;20164;-68
2021/03/30 05:26:46;;;;;;;8.80;5.18;;;9.50;99.90;;;;;;4187450;28;20108;-67
2021/03/30 05:28:47;;;;;;;7.93;5.00;;;9.50;99.90;;;;;;4189187;28;20523;-68
2021/03/30 05:30:48;;;;;;;9.85;5.13;;;9.50;99.90;;;;;;4187137;28;20033;-68
2021/03/30 05:32:48;;;;;;;9.50;5.25;;;9.40;99.90;;;;;;4189107;28;20035;-68
2021/03/30 05:34:52;;;;;;;11.27;4.80;;;9.50;99.90;;;;;;4193659;28;20116;-67
2021/03/30 05:36:53;;;;;;;9.10;4.65;;;9.50;99.90;;;;;;4193975;28;20071;-68
2021/03/30 05:38:55;;;;;;;14.73;5.38;;;9.50;99.90;;;;;;4186930;28;20442;-68
2021/03/30 05:40:56;;;;;;;8.35;4.95;;;9.40;99.90;;;;;;4156821;28;20072;-68
2021/03/30 05:42:58;;;;;;;8.63;5.10;;;9.40;99.90;;;;;;4178496;28;20082;-68
2021/03/30 05:44:59;;;;;;;11.40;5.05;;;9.40;99.90;;;;;;4177670;28;20047;-68
2021/03/30 05:49:02;;;;;;;8.70;5.18;;;9.40;99.90;;;;;;4193315;28;20032;-68
2021/03/30 05:51:06;;;;;;;8.57;4.80;;;9.40;99.90;;;;;;4190000;28;20051;-68
2021/03/30 05:53:12;;;;;;;9.40;5.18;;;9.40;99.90;;;;;;4190302;28;20033;-68
2021/03/30 05:55:24;;;;;;;11.73;5.22;;;9.30;99.90;;;;;;4191352;28;20602;-68
2021/03/30 05:57:28;;;;;;;10.40;5.28;;;9.30;99.90;;;;;;4184133;28;20044;-68
2021/03/30 05:59:32;;;;;;;9.52;5.40;;;9.30;99.90;;;;;;4186261;28;20040;-68
2021/03/30 06:01:34;;;;;;;8.50;4.93;;;9.30;99.90;;;;;;4179334;28;20033;-68
2021/03/30 06:03:35;;;;;;;9.20;4.90;;;9.30;99.90;;;;;;4188509;28;20542;-68
2021/03/30 06:05:36;;;;;;;10.50;5.20;;;9.30;99.90;;;;;;4185881;28;20495;-68
2021/03/30 06:07:38;;;;;;;10.48;5.40;;;9.40;99.90;;;;;;4188646;28;20017;-68
2021/03/30 06:09:42;;;;;;;9.80;5.43;;;9.40;99.90;;;;;;4186858;28;20049;-68
2021/03/30 06:11:43;;;;;;;9.70;5.60;;;9.40;99.90;;;;;;4185643;28;20039;-67
2021/03/30 06:13:54;;;;;;;10.35;5.57;;;9.40;99.90;;;;;;4187153;28;20071;-67
2021/03/30 06:16:15;;;;;;;10.73;5.18;;;9.20;99.90;;;;;;4183316;28;20028;-68
2021/03/30 06:18:19;;;;;;;8.10;4.60;;;9.10;99.90;;;;;;4185375;28;20041;-68
2021/03/30 06:20:40;;;;;;;7.55;5.00;;;9.10;99.90;;;;;;4188731;28;20075;-68
2021/03/30 06:22:52;;;;;;;12.35;5.38;;;9.20;99.90;;;;;;4187662;28;20041;-68
2021/03/30 06:24:54;;;;;;;8.55;5.60;;;9.20;99.90;;;;;;4194276;28;20032;-68
2021/03/30 06:27:17;;;;;;;10.90;5.03;;;9.30;99.90;;;;;;4176463;28;20041;-68
2021/03/30 06:29:34;;;;;;;8.65;5.05;;;9.40;99.90;;;;;;4173823;28;20060;-68
2021/03/30 06:31:35;;;;;;;8.90;5.07;;;9.40;99.90;;;;;;4170765;28;20034;-68
2021/03/30 06:33:51;;;;;;;11.38;5.18;;;9.40;99.90;;;;;;4191427;28;20051;-68
2021/03/30 06:36:11;;;;;;;12.45;5.50;;;9.50;99.90;;;;;;4174882;28;20051;-68
2021/03/30 06:38:12;;;;;;;7.30;4.43;;;9.60;99.90;;;;;;4184343;28;20108;-69
2021/03/30 06:40:33;;;;;;;10.23;5.18;;;9.60;99.90;;;;;;4188889;28;20032;-69
2021/03/30 06:44:39;;;;;;;8.90;4.50;;;9.90;99.90;;;;;;4189408;28;20432;-68
2021/03/30 06:46:40;;;;;;;8.60;4.25;;;9.90;99.90;;;;;;4192568;28;20037;-68
2021/03/30 06:48:40;;;;;;;10.73;4.78;;;10.00;99.90;;;;;;4190828;28;20068;-67
2021/03/30 06:50:41;;;;;;;10.07;4.93;;;10.10;99.90;;;;;;4189026;28;20033;-67
2021/03/30 06:52:42;;;;;;;9.13;4.90;;;10.10;99.90;;;;;;4187538;28;20673;-67
2021/03/30 06:54:51;;;;;;;13.32;4.95;;;10.20;99.90;;;;;;4191070;28;20452;-67
2021/03/30 06:56:56;;;;;;;15.80;4.53;;;10.30;99.90;;;;;;4185209;28;20025;-68
2021/03/30 06:58:58;;;;;;;8.63;4.40;;;10.40;99.90;;;;;;4185261;28;20029;-67
2021/03/30 07:00:59;;;;;;;7.55;4.22;;;10.40;99.90;;;;;;4187931;28;20043;-67
2021/03/30 07:03:06;;;;;;;7.43;3.95;;;10.50;99.90;;;;;;4185103;28;20037;-68
2021/03/30 07:05:19;;;;;;;8.68;4.15;;;10.60;99.90;;;;;;4181484;28;20071;-68
2021/03/30 07:07:22;;;;;;;6.82;4.00;;;10.60;99.90;;;;;;4184134;28;20090;-67
2021/03/30 07:09:23;;;;;;;9.32;4.15;;;10.70;99.90;;;;;;4180400;28;20029;-67
2021/03/30 07:11:24;;;;;;;13.02;4.93;;;10.80;99.90;;;;;;4189676;28;20507;-67
2021/03/30 07:13:27;;;;;;;10.45;4.22;;;10.90;99.90;;;;;;4187627;28;20060;-67
2021/03/30 07:15:28;;;;;;;7.28;4.38;;;10.90;99.90;;;;;;4174991;28;20040;-67
2021/03/30 07:17:34;;;;;;;10.10;4.72;;;11.00;99.90;;;;;;4187888;28;20071;-67
2021/03/30 07:19:35;;;;;;;8.60;4.45;;;11.00;99.90;;;;;;4189086;28;20056;-67
2021/03/30 07:21:49;;;;;;;11.93;5.05;;;11.10;99.90;;;;;;4191158;28;21606;-67
2021/03/30 07:23:54;;;;;;;10.50;5.13;;;11.20;99.90;;;;;;4189481;28;20076;-67
2021/03/30 07:26:21;;;;;;;10.30;5.03;;;11.20;99.90;;;;;;4186256;28;20032;-67
2021/03/30 07:28:29;;;;;;;8.27;4.90;;;11.30;99.90;;;;;;4183589;28;20025;-67
2021/03/30 07:30:30;;;;;;;11.18;4.95;;;11.40;99.90;;;;;;4171129;28;20036;-67
2021/03/30 07:32:55;;;;;;;11.80;5.57;;;11.50;99.90;;;;;;4184078;28;20037;-67
2021/03/30 07:35:03;;;;;;;11.32;5.15;;;11.60;99.90;;;;;;4188014;28;20100;-67
2021/03/30 07:37:10;;;;;;;11.38;4.88;;;11.60;99.90;;;;;;4184116;28;20125;-67
2021/03/30 07:39:10;;;;;;;7.97;4.28;;;11.70;99.90;;;;;;4184762;28;20557;-67
2021/03/30 07:41:22;;;;;;;8.38;4.50;;;11.90;99.90;;;;;;4185021;28;20041;-67
2021/03/30 07:43:25;;;;;;;13.25;5.13;;;12.00;99.90;;;;;;4185808;28;20041;-68
2021/03/30 07:45:30;;;;;;;9.48;4.90;;;12.10;99.90;;;;;;4185662;28;20509;-67
2021/03/30 07:47:31;;;;;;;12.15;5.25;;;12.20;99.90;;;;;;4187596;28;20560;-67
2021/03/30 07:49:32;;;;;;;13.07;5.32;;;12.40;99.90;;;;;;4188024;28;20508;-67
2021/03/30 07:51:36;;;;;;;9.52;5.43;;;12.50;99.90;;;;;;4188210;28;20057;-67
2021/03/30 07:53:54;;;;;;;11.95;5.10;;;12.50;99.90;;;;;;4183803;28;20044;-67
2021/03/30 07:55:54;;;;;;;9.95;4.70;;;12.60;99.90;;;;;;4183333;28;20071;-67
2021/03/30 07:58:10;;;;;;;7.60;4.43;;;12.70;99.90;;;;;;4189817;28;20040;-67
2021/03/30 08:00:31;;;;;;;8.50;4.75;;;12.80;99.90;;;;;;4186229;28;20086;-68
2021/03/30 08:02:32;;;;;;;11.25;5.05;;;13.00;99.90;;;;;;4180807;28;20064;-67
2021/03/30 08:04:33;;;;;;;10.27;4.90;;;13.20;99.90;;;;;;4182429;28;20538;-68
2021/03/30 08:06:47;;;;;;;12.07;5.65;;;13.30;99.90;;;;;;4186133;28;20043;-68
2021/03/30 08:08:59;;;;;;;13.70;6.07;;;13.40;99.90;;;;;;4182582;28;20226;-67
2021/03/30 08:11:00;;;;;;;11.48;5.32;;;13.60;99.90;;;;;;4182900;28;20123;-67
2021/03/30 08:13:27;;;;;;;12.90;5.70;;;13.70;99.90;;;;;;4186975;28;20048;-68
2021/03/30 08:15:59;;;;;;;14.60;5.43;;;13.90;99.90;;;;;;4185342;28;20037;-68
2021/03/30 08:18:00;;;;;;;9.57;5.38;;;14.00;99.90;;;;;;4167560;28;20040;-67
2021/03/30 08:20:06;;;;;;;11.93;6.07;;;14.20;99.90;;;;;;4177812;28;20037;-68
2021/03/30 08:22:08;;;;;;;13.63;5.85;;;14.40;99.90;;;;;;4177703;28;20032;-68
2021/03/30 08:24:10;;;;;;;10.93;5.63;;;14.50;99.90;;;;;;4170086;28;20451;-67
2021/03/30 08:26:35;;;;;;;13.10;6.25;;;14.60;99.90;;;;;;4181453;28;20822;-67
2021/03/30 08:28:48;;;;;;;14.73;5.80;;;14.80;99.90;;;;;;4184124;28;20068;-67
2021/03/30 08:30:53;;;;;;;14.40;6.20;;;14.90;99.90;;;;;;4185718;28;20041;-67
2021/03/30 08:32:55;;;;;;;15.77;7.38;;;15.00;99.90;;;;;;4190773;28;20037;-68
2021/03/30 08:34:55;;;;;;;14.85;7.25;;;15.10;99.90;;;;;;4191513;28;20048;-68
2021/03/30 08:36:58;;;;;;;16.05;6.93;;;15.20;99.90;;;;;;4189865;28;20039;-68
2021/03/30 08:39:29;;;;;;;13.38;6.63;;;15.40;99.90;;;;;;4189495;28;20043;-67
2021/03/30 08:41:43;;;;;;;11.95;6.28;;;15.50;99.90;;;;;;4181285;28;20120;-68
2021/03/30 08:44:13;;;;;;;16.23;6.85;;;15.70;99.90;;;;;;4188961;28;20039;-68
2021/03/30 08:46:14;;;;;;;13.75;6.95;;;15.80;98.20;;;;;;4193970;28;20037;-67
2021/03/30 08:48:14;;;;;;;14.48;7.30;;;15.90;98.60;;;;;;4194212;28;20033;-68
2021/03/30 08:50:25;;;;;;;14.20;7.45;;;16.00;98.70;;;;;;4189177;28;20030;-67
2021/03/30 08:52:29;;;;;;;12.13;6.13;;;16.20;97.60;;;;;;4176930;28;20041;-68
2021/03/30 08:54:33;;;;;;;11.40;6.70;;;16.30;98.20;;;;;;4175880;28;20040;-67
2021/03/30 08:56:34;;;;;;;14.13;7.00;;;16.60;96.50;;;;;;4176201;28;20032;-67
2021/03/30 08:58:56;;;;;;;14.27;7.13;;;16.70;93.40;;;;;;4180062;28;20028;-68
2021/03/30 09:00:57;;;;;;;15.48;7.07;;;16.80;93.70;;;;;;4176930;28;20049;-68
2021/03/30 09:03:07;;;;;;;18.10;7.53;;;16.90;93.90;;;;;;4177798;28;20037;-68
2021/03/30 09:05:19;;;;;;;14.10;7.47;;;17.00;92.40;;;;;;4179431;28;20029;-67
2021/03/30 09:07:21;;;;;;;15.02;7.30;;;17.20;91.60;;;;;;4191804;28;20949;-68
2021/03/30 09:09:33;;;;;;;18.00;7.18;;;17.20;91.50;;;;;;4193336;28;20349;-68
2021/03/30 09:11:36;;;;;;;14.45;7.65;;;17.30;90.30;;;;;;4190215;28;20036;-68
2021/03/30 09:13:37;;;;;;;;;;;17.40;90.60;;;;;;4182192;28;20107;-68
2021/03/30 09:15:37;;;;;;;18.30;8.75;;;17.60;90.30;;;;;;4185241;28;19919;-68
2021/03/30 09:17:55;;;;;;;17.98;8.43;;;17.70;88.80;;;;;;4187725;28;20484;-68
2021/03/30 09:19:56;;;;;;;15.88;7.55;;;17.80;88.40;;;;;;4188917;28;20042;-68
2021/03/30 09:22:07;;;;;;;14.82;7.45;;;17.90;85.70;;;;;;4190948;28;20041;-68
2021/03/30 09:24:19;;;;;;;20.83;8.40;;;18.00;87.20;;;;;;4187626;28;20503;-67
2021/03/30 09:26:30;;;;;;;16.77;8.70;;;18.10;82.90;;;;;;4190455;28;20032;-67
2021/03/30 09:28:31;;;;;;;17.33;8.13;;;18.20;81.60;;;;;;4187544;28;20083;-67
2021/03/30 09:30:35;;;;;;;13.90;7.53;;;18.30;82.60;;;;;;4190307;28;20045;-67
2021/03/30 09:32:38;;;;;;;17.15;8.80;;;18.40;79.30;;;;;;4189603;28;20052;-67
2021/03/30 09:34:39;;;;;;;17.50;8.90;;;18.50;80.30;;;;;;4189602;28;20035;-67
2021/03/30 09:36:46;;;;;;;23.38;9.85;;;18.60;78.70;;;;;;4189334;28;20041;-67
2021/03/30 09:38:52;;;;;;;16.58;9.00;;;18.80;76.60;;;;;;4195740;28;20052;-67
2021/03/30 09:40:53;;;;;;;22.35;11.10;;;18.90;74.60;;;;;;4190492;28;20083;-67
2021/03/30 09:42:54;;;;;;;20.98;10.35;;;19.00;72.40;;;;;;4197613;28;20040;-67
2021/03/30 09:44:55;;;;;;;31.60;10.97;;;19.10;70.70;;;;;;4188948;28;20040;-67
2021/03/30 09:46:56;;;;;;;28.08;12.20;;;19.10;70.70;;;;;;4196353;28;20457;-68
2021/03/30 09:48:57;;;;;;;21.65;11.50;;;19.20;69.30;;;;;;4203117;28;20051;-67
2021/03/30 09:50:59;;;;;;;24.95;12.63;;;19.20;68.80;;;;;;4201153;28;20028;-67
2021/03/30 09:53:05;;;;;;;18.60;10.57;;;19.40;68.80;;;;;;4186279;28;20619;-67
2021/03/30 09:55:07;;;;;;;22.83;10.43;;;19.50;67.50;;;;;;4170623;28;20037;-67
2021/03/30 09:57:23;;;;;;;20.75;9.82;;;19.50;68.40;;;;;;4191943;28;20095;-67
2021/03/30 09:59:24;;;;;;;26.80;11.40;;;19.60;68.80;;;;;;4190233;28;20048;-67
2021/03/30 10:01:24;;;;;;;20.48;10.73;;;19.70;67.20;;;;;;4189586;28;20045;-67
2021/03/30 10:03:26;;;;;;;23.38;11.70;;;19.70;65.70;;;;;;4186837;28;20044;-67
2021/03/30 10:05:34;;;;;;;25.48;12.50;;;19.80;65.20;;;;;;4179535;28;20103;-67
2021/03/30 10:07:37;;;;;;;22.33;12.18;;;19.90;65.30;;;;;;4192117;28;20071;-67
2021/03/30 10:09:54;;;;;;;22.63;12.68;;;20.00;63.10;;;;;;4192594;28;20060;-67
2021/03/30 10:11:55;;;;;;;27.67;14.70;;;20.10;61.90;;;;;;4182776;28;20128;-67
2021/03/30 10:14:16;;;;;;;26.73;15.30;;;20.10;60.90;;;;;;4183757;28;20056;-67
2021/03/30 10:16:16;;;;;;;32.25;16.38;;;20.20;58.90;;;;;;4188246;28;20143;-68
2021/03/30 10:18:18;;;;;;;29.15;16.50;;;20.20;58.20;;;;;;4188454;28;20085;-68
2021/03/30 10:20:19;;;;;;;29.40;16.17;;;20.30;60.30;;;;;;4193170;28;20074;-67
2021/03/30 10:22:27;;;;;;;28.67;13.93;;;20.30;59.40;;;;;;4193120;28;20679;-67
2021/03/30 10:24:27;;;;;;;29.15;15.57;;;20.40;60.60;;;;;;4186140;28;20064;-67
2021/03/30 10:26:29;;;;;;;31.70;15.77;;;20.50;58.80;;;;;;4180758;28;20139;-67
2021/03/30 10:28:31;;;;;;;26.00;14.00;;;20.40;57.10;;;;;;4186727;28;20108;-67
2021/03/30 10:30:45;;;;;;;26.33;13.50;;;20.50;57.00;;;;;;4182810;28;20029;-67
2021/03/30 10:32:53;;;;;;;24.83;13.57;;;20.60;57.20;;;;;;4181962;28;20059;-67
2021/03/30 10:34:54;;;;;;;22.38;12.27;;;20.60;57.90;;;;;;4184248;28;20583;-68
2021/03/30 10:36:58;;;;;;;20.85;11.80;;;20.70;57.20;;;;;;4187431;28;20116;-67
2021/03/30 10:39:09;;;;;;;21.27;11.65;;;20.80;56.30;;;;;;4190132;28;20178;-67
2021/03/30 10:41:11;;;;;;;22.13;12.85;;;20.90;54.40;;;;;;4166408;28;20652;-67
2021/03/30 10:43:23;;;;;;;21.92;12.82;;;20.90;56.10;;;;;;4184671;28;20553;-68
2021/03/30 10:45:29;;;;;;;28.13;13.80;;;20.90;57.80;;;;;;4179426;28;20033;-67
2021/03/30 10:47:33;;;;;;;28.05;14.77;;;21.00;57.20;;;;;;4185532;28;20128;-68
2021/03/30 10:49:33;;;;;;;26.88;14.90;;;21.00;56.70;;;;;;4185400;28;20089;-67
2021/03/30 10:51:38;;;;;;;29.02;15.23;;;21.00;56.90;;;;;;4187106;28;20075;-67
2021/03/30 10:53:39;;;;;;;25.83;14.18;;;21.00;56.10;;;;;;4187811;28;20067;-67